createdAt,value
2023-02-04T00:00:35.102Z,11.71
2023-02-04T00:05:26.099Z,11.71
2023-02-04T00:10:20.367Z,11.67
2023-02-04T00:15:13.889Z,11.74
2023-02-04T00:20:11.644Z,11.69
2023-02-04T00:25:02.526Z,11.70
2023-02-04T00:29:55.844Z,11.61
2023-02-04T00:34:50.562Z,11.70
2023-02-04T00:39:44.856Z,11.78
2023-02-04T00:44:37.519Z,11.71
2023-02-04T00:49:29.999Z,11.65
2023-02-04T00:54:20.084Z,11.67
2023-02-04T00:59:13.102Z,11.63
2023-02-04T01:04:07.748Z,11.68
2023-02-04T01:08:58.512Z,11.74
2023-02-04T01:13:53.456Z,11.69
2023-02-04T01:18:50.148Z,11.77
2023-02-04T01:23:42.508Z,11.77
2023-02-04T01:28:34.506Z,11.71
2023-02-04T01:33:26.428Z,11.71
2023-02-04T01:38:22.316Z,11.58
2023-02-04T01:43:13.974Z,11.64
2023-02-04T01:48:06.199Z,11.61
2023-02-04T01:53:02.945Z,11.31
2023-02-04T01:57:59.193Z,11.49
2023-02-04T02:02:53.817Z,11.66
2023-02-04T02:07:49.027Z,11.62
2023-02-04T02:12:42.201Z,11.54
2023-02-04T02:17:36.770Z,11.56
2023-02-04T02:22:32.790Z,11.58
2023-02-04T02:27:27.329Z,11.62
2023-02-04T02:32:22.882Z,11.68
2023-02-04T02:37:18.333Z,11.66
2023-02-04T02:42:08.276Z,11.62
2023-02-04T02:47:03.018Z,11.55
2023-02-04T02:51:56.128Z,11.52
2023-02-04T02:56:48.354Z,11.48
2023-02-04T03:01:40.021Z,11.48
2023-02-04T03:06:34.980Z,11.43
2023-02-04T03:11:28.253Z,11.35
2023-02-04T03:16:20.025Z,11.26
2023-02-04T03:21:14.864Z,11.27
2023-02-04T03:26:11.278Z,11.18
2023-02-04T03:31:03.635Z,11.21
2023-02-04T03:35:54.312Z,11.16
2023-02-04T03:40:44.333Z,11.03
2023-02-04T03:45:45.005Z,11.05
2023-02-04T03:50:37.264Z,10.99
2023-02-04T03:55:30.368Z,10.99
2023-02-04T04:00:21.997Z,11.01
2023-02-04T04:05:15.815Z,11.08
2023-02-04T04:10:07.700Z,11.02
2023-02-04T04:15:00.340Z,11.10
2023-02-04T04:19:51.563Z,11.11
2023-02-04T04:24:45.915Z,11.12
2023-02-04T04:29:39.102Z,11.15
2023-02-04T04:34:29.818Z,11.23
2023-02-04T04:39:20.181Z,11.21
2023-02-04T04:44:12.688Z,11.26
2023-02-04T04:49:02.973Z,11.25
2023-02-04T04:53:54.563Z,11.32
2023-02-04T04:58:45.423Z,11.35
2023-02-04T05:03:41.241Z,11.23
2023-02-04T05:08:34.461Z,11.27
2023-02-04T05:13:26.325Z,11.23
2023-02-04T05:18:18.477Z,11.29
2023-02-04T05:23:14.837Z,11.24
2023-02-04T05:28:05.833Z,11.34
2023-02-04T05:33:00.534Z,11.33
2023-02-04T05:37:52.035Z,11.30
2023-02-04T05:42:46.854Z,11.30
2023-02-04T05:47:36.820Z,11.34
2023-02-04T05:52:29.597Z,11.20
2023-02-04T05:57:19.383Z,11.26
2023-02-04T06:02:12.720Z,11.28
2023-02-04T06:07:04.074Z,11.27
2023-02-04T06:11:58.039Z,11.25
2023-02-04T06:16:50.036Z,11.33
2023-02-04T06:21:43.099Z,11.34
2023-02-04T06:26:38.941Z,11.35
2023-02-04T06:31:33.283Z,11.22
2023-02-04T06:36:25.227Z,11.46
2023-02-04T06:41:20.405Z,11.40
2023-02-04T06:46:11.368Z,11.42
2023-02-04T06:51:01.880Z,11.51
2023-02-04T06:55:52.858Z,11.54
2023-02-04T07:00:45.748Z,11.55
2023-02-04T07:05:37.802Z,11.52
2023-02-04T07:10:33.730Z,11.53
2023-02-04T07:15:31.454Z,11.39
2023-02-04T07:20:27.551Z,11.41
2023-02-04T07:25:22.520Z,11.45
2023-02-04T07:30:15.601Z,11.43
2023-02-04T07:35:09.542Z,11.49
2023-02-04T07:40:03.057Z,11.55
2023-02-04T07:44:53.480Z,11.60
2023-02-04T07:49:43.565Z,11.63
2023-02-04T07:54:35.013Z,11.50
2023-02-04T07:59:31.565Z,11.54
2023-02-04T08:04:23.634Z,11.61
2023-02-04T08:09:15.531Z,11.67
2023-02-04T08:14:12.074Z,11.70
2023-02-04T08:19:07.420Z,11.76
2023-02-04T08:24:01.111Z,11.79
2023-02-04T08:28:53.341Z,11.85
2023-02-04T08:33:47.940Z,11.69
2023-02-04T08:38:41.697Z,11.60
2023-02-04T08:43:31.842Z,11.62
2023-02-04T08:48:22.603Z,11.69
2023-02-04T08:53:13.199Z,11.77
2023-02-04T08:58:06.433Z,11.76
2023-02-04T09:02:57.544Z,11.70
2023-02-04T09:07:53.000Z,11.84
2023-02-04T09:12:44.354Z,11.78
2023-02-04T09:17:39.928Z,12.13
2023-02-04T09:22:31.914Z,12.29
2023-02-04T09:27:23.253Z,12.28
2023-02-04T09:32:14.290Z,12.31
2023-02-04T09:37:09.240Z,12.38
2023-02-04T09:42:02.999Z,12.46
2023-02-04T09:46:55.670Z,12.34
2023-02-04T09:51:49.507Z,12.29
2023-02-04T09:56:43.137Z,12.30
2023-02-04T10:01:40.085Z,12.51
2023-02-04T10:06:33.108Z,12.46
2023-02-04T10:11:28.068Z,12.50
2023-02-04T10:16:30.346Z,12.53
2023-02-04T10:21:25.115Z,12.64
2023-02-04T10:26:18.020Z,12.75
2023-02-04T10:31:11.224Z,12.84
2023-02-04T10:36:07.818Z,12.97
2023-02-04T10:41:06.179Z,13.16
2023-02-04T10:46:05.095Z,13.27
2023-02-04T10:51:00.549Z,13.37
2023-02-04T10:55:54.301Z,13.41
2023-02-04T11:00:48.593Z,13.41
2023-02-04T11:05:42.734Z,13.38
2023-02-04T11:10:36.068Z,13.48
2023-02-04T11:16:14.131Z,13.48
2023-02-04T11:21:06.350Z,13.51
2023-02-04T11:26:08.284Z,13.67
2023-02-04T11:31:17.840Z,13.74
2023-02-04T11:36:17.933Z,13.89
2023-02-04T11:41:19.391Z,13.82
2023-02-04T11:46:18.943Z,13.81
2023-02-04T11:51:19.411Z,13.71
2023-02-04T11:56:09.505Z,13.69
2023-02-04T12:00:59.640Z,13.58
2023-02-04T12:05:56.382Z,13.52
2023-02-04T12:10:57.627Z,13.54
2023-02-04T12:16:07.739Z,13.48
2023-02-04T12:21:05.182Z,13.39
2023-02-04T12:25:57.747Z,13.36
2023-02-04T12:30:48.249Z,13.23
2023-02-04T12:35:39.054Z,13.07
2023-02-04T12:40:31.696Z,12.98
2023-02-04T12:45:22.981Z,13.01
2023-02-04T12:50:15.509Z,13.05
2023-02-04T12:55:11.480Z,13.02
2023-02-04T13:00:11.564Z,12.91
2023-02-04T13:05:10.234Z,12.96
2023-02-04T13:10:03.031Z,12.96
2023-02-04T13:14:54.424Z,12.96
2023-02-04T13:19:47.830Z,12.80
2023-02-04T13:24:38.088Z,12.94
2023-02-04T13:29:28.640Z,12.92
2023-02-04T13:34:20.007Z,13.08
2023-02-04T13:39:15.256Z,12.81
2023-02-04T13:44:07.510Z,12.95
2023-02-04T13:48:59.046Z,12.95
2023-02-04T13:53:53.914Z,13.00
2023-02-04T13:58:48.272Z,12.99
2023-02-04T14:03:43.811Z,13.01
2023-02-04T14:08:39.413Z,12.97
2023-02-04T14:13:38.934Z,12.98
2023-02-04T14:18:31.907Z,13.12
2023-02-04T14:23:25.132Z,13.08
2023-02-04T14:28:21.431Z,13.18
2023-02-04T14:33:14.106Z,13.13
2023-02-04T14:38:12.884Z,13.13
2023-02-04T14:43:07.494Z,13.06
2023-02-04T14:48:03.033Z,12.99
2023-02-04T14:52:55.793Z,12.88
2023-02-04T14:57:50.505Z,12.94
2023-02-04T15:02:45.049Z,12.89
2023-02-04T15:07:35.805Z,12.82
2023-02-04T15:12:29.297Z,12.67
2023-02-04T15:17:30.321Z,12.69
2023-02-04T15:22:24.451Z,12.63
2023-02-04T15:27:15.652Z,12.66
2023-02-04T15:32:16.273Z,12.70
2023-02-04T15:37:11.559Z,12.66
2023-02-04T15:42:06.198Z,12.69
2023-02-04T15:46:59.417Z,12.69
2023-02-04T15:51:52.420Z,12.40
2023-02-04T15:56:45.136Z,12.67
2023-02-04T16:01:42.974Z,12.50
2023-02-04T16:06:37.167Z,12.47
2023-02-04T16:11:29.206Z,12.62
2023-02-04T16:16:24.261Z,12.60
2023-02-04T16:21:16.296Z,12.51
2023-02-04T16:26:09.591Z,12.52
2023-02-04T16:31:00.911Z,12.53
2023-02-04T16:36:05.305Z,12.54
2023-02-04T16:40:55.603Z,12.49
2023-02-04T16:45:49.516Z,12.54
2023-02-04T16:50:41.590Z,12.55
2023-02-04T16:55:36.063Z,12.41
2023-02-04T17:00:28.242Z,12.56
2023-02-04T17:05:20.057Z,12.38
2023-02-04T17:10:15.722Z,12.38
2023-02-04T17:15:14.800Z,12.46
2023-02-04T17:20:06.080Z,12.48
2023-02-04T17:24:56.663Z,12.52
2023-02-04T17:29:46.787Z,12.56
2023-02-04T17:34:39.680Z,12.50
2023-02-04T17:39:30.671Z,12.47
2023-02-04T17:44:25.299Z,12.46
2023-02-04T17:49:17.840Z,12.43
2023-02-04T17:54:13.955Z,12.47
2023-02-04T17:59:05.426Z,12.37
2023-02-04T18:03:59.503Z,12.42
2023-02-04T18:08:53.119Z,12.52
2023-02-04T18:13:47.490Z,12.49
2023-02-04T18:18:40.566Z,12.44
2023-02-04T18:23:33.724Z,12.45
2023-02-04T18:28:24.883Z,12.46
2023-02-04T18:33:23.920Z,12.39
2023-02-04T18:38:39.899Z,12.45
2023-02-04T18:43:32.205Z,12.37
2023-02-04T18:48:59.398Z,12.44
2023-02-04T18:53:53.465Z,12.47
2023-02-04T18:58:50.933Z,12.47
2023-02-04T19:03:50.397Z,12.43
2023-02-04T19:08:48.273Z,12.48
2023-02-04T19:14:31.733Z,12.48
2023-02-04T19:19:57.699Z,12.09
2023-02-04T19:24:54.702Z,12.43
2023-02-04T19:30:01.280Z,12.33
2023-02-04T19:34:55.005Z,12.41
2023-02-04T19:39:46.489Z,12.35
2023-02-04T19:44:49.570Z,12.37
2023-02-04T19:49:43.458Z,12.22
2023-02-04T19:54:43.680Z,12.16
2023-02-04T19:59:39.885Z,12.20
2023-02-04T20:04:40.104Z,12.12
2023-02-04T20:09:37.402Z,12.08
2023-02-04T20:14:32.569Z,12.14
2023-02-04T20:19:27.519Z,12.12
2023-02-04T20:24:20.574Z,11.95
2023-02-04T20:29:27.116Z,12.03
2023-02-04T20:34:28.322Z,11.99
2023-02-04T20:39:40.502Z,12.06
2023-02-04T20:44:47.175Z,12.03
2023-02-04T20:49:46.492Z,12.02
2023-02-04T20:54:36.750Z,12.03
2023-02-04T20:59:36.662Z,12.04
2023-02-04T21:04:33.588Z,12.03
2023-02-04T21:09:27.092Z,12.08
2023-02-04T21:14:18.177Z,12.08
2023-02-04T21:19:12.150Z,11.99
2023-02-04T21:24:04.568Z,11.97
2023-02-04T21:28:59.907Z,11.96
2023-02-04T21:33:53.982Z,12.08
2023-02-04T21:38:49.832Z,12.06
2023-02-04T21:43:58.293Z,12.10
2023-02-04T21:48:51.049Z,12.08
2023-02-04T21:53:43.950Z,12.04
2023-02-04T21:58:38.822Z,12.04
2023-02-04T22:03:30.162Z,11.84
2023-02-04T22:08:21.744Z,11.91
2023-02-04T22:13:15.740Z,11.88
2023-02-04T22:18:13.624Z,11.87
2023-02-04T22:23:06.242Z,11.87
2023-02-04T22:27:57.626Z,11.93
2023-02-04T22:32:51.751Z,11.89
2023-02-04T22:37:46.098Z,11.89
2023-02-04T22:42:37.375Z,11.87
2023-02-04T22:47:28.877Z,11.86
2023-02-04T22:52:25.146Z,11.84
2023-02-04T22:57:21.368Z,11.77
2023-02-04T23:02:15.322Z,11.86
2023-02-04T23:07:08.855Z,11.76
2023-02-04T23:12:13.072Z,11.76
2023-02-04T23:17:06.850Z,11.75
2023-02-04T23:21:58.367Z,11.71
2023-02-04T23:26:49.705Z,11.67
2023-02-04T23:31:40.596Z,11.67
2023-02-04T23:36:39.756Z,11.63
2023-02-04T23:41:30.845Z,11.62
2023-02-04T23:46:24.802Z,11.58
2023-02-04T23:51:16.416Z,11.60
2023-02-04T23:56:10.929Z,11.55
